createdAt,value
2023-04-20T00:00:10.168Z,5.65
2023-04-20T00:02:40.390Z,6.80
2023-04-20T00:05:08.329Z,4.85
2023-04-20T00:07:35.857Z,5.07
2023-04-20T00:10:07.159Z,4.57
2023-04-20T00:12:33.862Z,6.78
2023-04-20T00:15:00.518Z,6.05
2023-04-20T00:17:27.386Z,4.78
2023-04-20T00:19:54.206Z,4.88
2023-04-20T00:22:21.154Z,5.07
2023-04-20T00:24:47.811Z,4.50
2023-04-20T00:27:14.519Z,4.55
2023-04-20T00:29:41.167Z,4.95
2023-04-20T00:32:07.920Z,4.53
2023-04-20T00:34:34.932Z,5.47
2023-04-20T00:37:01.744Z,7.45
2023-04-20T00:39:28.478Z,3.88
2023-04-20T00:41:55.254Z,4.90
2023-04-20T00:44:21.916Z,4.93
2023-04-20T00:46:48.623Z,5.13
2023-04-20T00:49:15.600Z,5.10
2023-04-20T00:51:43.054Z,4.68
2023-04-20T00:54:09.725Z,5.55
2023-04-20T00:56:38.409Z,6.78
2023-04-20T00:59:08.155Z,6.03
2023-04-20T01:01:35.064Z,5.07
2023-04-20T01:04:01.926Z,5.05
2023-04-20T01:06:29.366Z,5.25
2023-04-20T01:08:57.250Z,5.57
2023-04-20T01:11:23.908Z,5.47
2023-04-20T01:13:50.803Z,5.40
2023-04-20T01:16:17.602Z,6.63
2023-04-20T01:18:47.364Z,8.90
2023-04-20T01:21:16.629Z,5.00
2023-04-20T01:23:43.860Z,6.13
2023-04-20T01:26:13.531Z,4.85
2023-04-20T01:28:40.300Z,4.95
2023-04-20T01:31:09.300Z,9.38
2023-04-20T01:33:36.811Z,8.45
2023-04-20T01:36:04.969Z,7.70
2023-04-20T01:38:34.587Z,4.88
2023-04-20T01:41:04.427Z,8.75
2023-04-20T01:43:31.513Z,5.70
2023-04-20T01:45:59.794Z,4.30
2023-04-20T01:48:26.732Z,7.93
2023-04-20T01:50:53.938Z,5.88
2023-04-20T01:53:20.897Z,5.97
2023-04-20T01:55:51.325Z,6.03
2023-04-20T01:58:18.022Z,5.07
2023-04-20T02:00:44.997Z,4.43
2023-04-20T02:03:11.914Z,9.63
2023-04-20T02:05:38.866Z,6.05
2023-04-20T02:08:05.698Z,6.38
2023-04-20T02:10:32.435Z,5.55
2023-04-20T02:12:59.099Z,6.03
2023-04-20T02:15:25.810Z,5.22
2023-04-20T02:17:52.629Z,9.32
2023-04-20T02:20:20.103Z,5.45
2023-04-20T02:22:46.960Z,7.72
2023-04-20T02:25:15.027Z,5.07
2023-04-20T02:27:42.239Z,6.40
2023-04-20T02:30:11.833Z,6.85
2023-04-20T02:32:38.967Z,7.45
2023-04-20T02:35:05.998Z,6.03
2023-04-20T02:37:32.736Z,6.05
2023-04-20T02:39:59.433Z,6.65
2023-04-20T02:42:27.263Z,6.53
2023-04-20T02:44:56.151Z,5.40
2023-04-20T02:47:22.877Z,6.13
2023-04-20T02:49:52.006Z,7.32
2023-04-20T02:52:19.026Z,9.75
2023-04-20T02:54:46.240Z,4.70
2023-04-20T02:57:13.508Z,7.40
2023-04-20T02:59:40.686Z,6.85
2023-04-20T03:02:24.935Z,6.50
2023-04-20T03:04:53.276Z,7.07
2023-04-20T03:07:21.213Z,6.32
2023-04-20T03:09:48.778Z,6.72
2023-04-20T03:12:22.360Z,6.82
2023-04-20T03:14:59.049Z,8.13
2023-04-20T03:17:40.396Z,7.25
2023-04-20T03:20:09.185Z,4.90
2023-04-20T03:22:36.412Z,7.38
2023-04-20T03:25:03.134Z,9.43
2023-04-20T03:27:48.309Z,7.40
2023-04-20T03:30:16.128Z,7.70
2023-04-20T03:32:45.541Z,6.72
2023-04-20T03:35:12.213Z,7.95
2023-04-20T03:37:40.038Z,8.75
2023-04-20T03:40:09.437Z,9.07
2023-04-20T03:42:37.284Z,8.43
2023-04-20T03:45:06.635Z,7.82
2023-04-20T03:47:33.420Z,7.80
2023-04-20T03:50:00.289Z,7.88
2023-04-20T03:52:27.024Z,6.82
2023-04-20T03:54:53.737Z,7.35
2023-04-20T03:57:20.483Z,7.85
2023-04-20T03:59:47.501Z,7.85
2023-04-20T04:02:18.328Z,7.22
2023-04-20T04:04:46.896Z,7.72
2023-04-20T04:07:13.697Z,9.15
2023-04-20T04:09:41.961Z,11.15
2023-04-20T04:12:09.553Z,7.45
2023-04-20T04:14:36.330Z,7.78
2023-04-20T04:17:03.928Z,12.20
2023-04-20T04:19:33.113Z,8.52
2023-04-20T04:22:00.641Z,8.00
2023-04-20T04:24:28.122Z,10.25
2023-04-20T04:27:06.110Z,8.63
2023-04-20T04:29:38.698Z,11.73
2023-04-20T04:32:09.670Z,9.00
2023-04-20T04:34:37.760Z,11.27
2023-04-20T04:37:04.758Z,10.50
2023-04-20T04:42:22.597Z,9.57
2023-04-20T04:44:49.442Z,11.40
2023-04-20T04:47:23.632Z,9.80
2023-04-20T04:49:51.675Z,9.50
2023-04-20T04:52:18.277Z,12.10
2023-04-20T04:54:45.248Z,12.70
2023-04-20T04:57:11.896Z,11.23
2023-04-20T04:59:38.579Z,10.77
2023-04-20T05:02:05.251Z,9.15
2023-04-20T05:04:32.226Z,13.40
2023-04-20T05:06:59.073Z,12.38
2023-04-20T05:09:26.616Z,10.20
2023-04-20T05:11:53.237Z,10.95
2023-04-20T05:14:19.897Z,9.38
2023-04-20T05:16:46.531Z,9.50
2023-04-20T05:19:13.219Z,10.32
2023-04-20T05:21:39.836Z,10.65
2023-04-20T05:24:07.329Z,10.30
2023-04-20T05:26:33.901Z,13.15
2023-04-20T05:29:00.624Z,9.65
2023-04-20T05:31:27.528Z,9.95
2023-04-20T05:33:54.295Z,9.95
2023-04-20T05:36:20.978Z,10.40
2023-04-20T05:38:47.661Z,12.02
2023-04-20T05:41:14.302Z,12.35
2023-04-20T05:43:41.123Z,14.27
2023-04-20T05:46:07.823Z,12.40
2023-04-20T05:48:34.506Z,11.25
2023-04-20T05:51:01.103Z,10.10
2023-04-20T05:53:27.913Z,12.50
2023-04-20T05:55:54.504Z,13.55
2023-04-20T05:58:21.173Z,14.35
2023-04-20T06:00:47.852Z,12.80
2023-04-20T06:03:14.711Z,14.70
2023-04-20T06:05:41.685Z,12.10
2023-04-20T06:08:08.431Z,11.57
2023-04-20T06:10:35.219Z,13.38
2023-04-20T06:13:01.944Z,11.00
2023-04-20T06:15:28.634Z,11.00
2023-04-20T06:17:55.382Z,9.73
2023-04-20T06:20:22.464Z,10.50
2023-04-20T06:22:49.388Z,11.80
2023-04-20T06:25:16.126Z,12.23
2023-04-20T06:27:43.051Z,12.52
2023-04-20T06:30:10.696Z,12.55
2023-04-20T06:32:38.104Z,9.52
2023-04-20T06:35:06.350Z,12.30
2023-04-20T06:37:33.193Z,13.23
2023-04-20T06:40:00.047Z,14.23
2023-04-20T06:42:27.239Z,12.95
2023-04-20T06:44:56.896Z,13.60
2023-04-20T06:47:23.706Z,11.63
2023-04-20T06:49:50.409Z,12.93
2023-04-20T06:52:17.088Z,11.20
2023-04-20T06:54:43.699Z,12.20
2023-04-20T06:57:10.390Z,11.65
2023-04-20T06:59:37.002Z,10.93
2023-04-20T07:02:03.880Z,11.38
2023-04-20T07:04:30.710Z,11.27
2023-04-20T07:06:57.436Z,12.98
2023-04-20T07:09:24.853Z,13.32
2023-04-20T07:11:51.458Z,14.35
2023-04-20T07:14:18.253Z,14.30
2023-04-20T07:16:44.921Z,13.65
2023-04-20T07:19:11.602Z,11.00
2023-04-20T07:21:38.275Z,12.05
2023-04-20T07:24:05.966Z,13.90
2023-04-20T07:26:32.628Z,14.40
2023-04-20T07:28:59.500Z,11.82
2023-04-20T07:31:26.208Z,12.45
2023-04-20T07:33:52.946Z,11.57
2023-04-20T07:36:21.607Z,14.35
2023-04-20T07:38:49.558Z,11.77
2023-04-20T07:41:16.311Z,11.05
2023-04-20T07:43:44.592Z,12.07
2023-04-20T07:46:20.094Z,11.15
2023-04-20T07:48:46.997Z,12.18
2023-04-20T07:51:13.617Z,13.77
2023-04-20T07:53:40.338Z,11.48
2023-04-20T07:56:07.200Z,14.63
2023-04-20T07:58:34.997Z,12.73
2023-04-20T08:01:01.703Z,13.45
2023-04-20T08:03:29.157Z,15.70
2023-04-20T08:05:56.114Z,15.75
2023-04-20T08:08:22.834Z,16.00
2023-04-20T08:10:49.456Z,18.42
2023-04-20T08:13:16.088Z,15.40
2023-04-20T08:15:42.922Z,17.30
2023-04-20T08:18:11.363Z,14.70
2023-04-20T08:20:38.033Z,14.52
2023-04-20T08:23:04.678Z,18.85
2023-04-20T08:25:32.486Z,13.82
2023-04-20T08:27:59.149Z,15.20
2023-04-20T08:30:27.105Z,14.50
2023-04-20T08:32:53.893Z,16.58
2023-04-20T08:35:20.574Z,15.98
2023-04-20T08:37:47.223Z,14.90
2023-04-20T08:40:13.952Z,13.82
2023-04-20T08:42:40.646Z,15.50
2023-04-20T08:45:07.787Z,11.57
2023-04-20T08:47:35.903Z,17.23
2023-04-20T08:50:04.361Z,16.55
2023-04-20T08:52:32.644Z,16.05
2023-04-20T08:54:59.306Z,18.65
2023-04-20T08:57:26.319Z,15.73
2023-04-20T08:59:53.376Z,17.17
2023-04-20T09:02:20.360Z,14.77
2023-04-20T09:04:49.369Z,15.93
2023-04-20T09:07:21.206Z,16.42
2023-04-20T09:09:55.366Z,14.60
2023-04-20T09:12:22.994Z,14.50
2023-04-20T09:14:49.825Z,15.73
2023-04-20T09:17:18.008Z,17.65
2023-04-20T09:19:45.906Z,15.45
2023-04-20T09:22:13.020Z,16.38
2023-04-20T09:24:41.350Z,17.98
2023-04-20T09:27:18.695Z,14.73
2023-04-20T09:29:58.909Z,18.35
2023-04-20T09:32:28.665Z,18.20
2023-04-20T09:34:56.278Z,16.77
2023-04-20T09:37:23.170Z,15.32
2023-04-20T09:39:50.364Z,16.48
2023-04-20T09:42:17.845Z,16.88
2023-04-20T09:44:44.748Z,17.40
2023-04-20T09:47:18.987Z,18.30
2023-04-20T09:49:49.091Z,20.10
2023-04-20T09:52:21.103Z,14.50
2023-04-20T09:54:47.811Z,18.75
2023-04-20T09:57:15.046Z,18.73
2023-04-20T09:59:47.126Z,18.73
2023-04-20T10:02:14.452Z,18.98
2023-04-20T10:04:58.066Z,17.48
2023-04-20T10:07:31.723Z,15.43
2023-04-20T10:10:12.462Z,14.80
2023-04-20T10:12:53.857Z,15.95
2023-04-20T10:15:24.346Z,16.13
2023-04-20T10:17:51.597Z,16.98
2023-04-20T10:20:26.790Z,15.63
2023-04-20T10:22:55.161Z,17.48
2023-04-20T10:25:27.432Z,14.82
2023-04-20T10:27:54.836Z,13.90
2023-04-20T10:30:22.384Z,16.17
2023-04-20T10:32:49.222Z,17.90
2023-04-20T10:35:16.282Z,16.90
2023-04-20T10:37:52.316Z,15.85
2023-04-20T10:40:29.323Z,20.85
2023-04-20T10:42:55.998Z,19.92
2023-04-20T10:45:34.276Z,17.85
2023-04-20T10:48:10.373Z,16.27
2023-04-20T10:50:37.356Z,16.25
2023-04-20T10:53:04.725Z,14.57
2023-04-20T10:55:31.582Z,17.48
2023-04-20T10:57:58.281Z,19.88
2023-04-20T11:00:28.013Z,20.40
2023-04-20T11:02:56.736Z,18.17
2023-04-20T11:05:27.785Z,18.63
2023-04-20T11:07:58.680Z,17.77
2023-04-20T11:10:38.151Z,17.00
2023-04-20T11:13:04.826Z,16.23
2023-04-20T11:15:35.328Z,16.15
2023-04-20T11:18:12.279Z,15.75
2023-04-20T11:20:53.502Z,15.27
2023-04-20T11:23:21.683Z,15.32
2023-04-20T11:25:52.962Z,17.25
2023-04-20T11:28:19.805Z,18.00
2023-04-20T11:30:47.066Z,15.35
2023-04-20T11:33:14.315Z,14.48
2023-04-20T11:35:42.618Z,16.50
2023-04-20T11:38:09.593Z,15.65
2023-04-20T11:40:36.521Z,12.02
2023-04-20T11:43:04.808Z,13.63
2023-04-20T11:45:36.804Z,15.10
2023-04-20T11:48:05.126Z,14.48
2023-04-20T11:50:31.809Z,11.77
2023-04-20T11:52:58.486Z,12.25
2023-04-20T11:55:25.193Z,11.27
2023-04-20T11:57:51.917Z,10.07
2023-04-20T12:00:19.371Z,11.23
2023-04-20T12:02:47.964Z,11.63
2023-04-20T12:05:15.258Z,10.00
2023-04-20T12:07:42.118Z,10.30
2023-04-20T12:10:09.301Z,10.55
2023-04-20T12:12:36.929Z,11.73
2023-04-20T12:15:03.784Z,10.02
2023-04-20T12:17:30.514Z,10.70
2023-04-20T12:19:57.928Z,7.75
2023-04-20T12:22:24.649Z,8.88
2023-04-20T12:24:51.295Z,9.80
2023-04-20T12:27:18.005Z,7.15
2023-04-20T12:29:44.647Z,8.57
2023-04-20T12:32:11.480Z,9.02
2023-04-20T12:34:38.078Z,6.93
2023-04-20T12:37:04.746Z,7.03
2023-04-20T12:39:31.363Z,9.27
2023-04-20T12:41:58.266Z,7.60
2023-04-20T12:44:24.912Z,8.52
2023-04-20T12:46:51.590Z,8.25
2023-04-20T12:49:18.529Z,8.30
2023-04-20T12:51:45.541Z,8.80
2023-04-20T12:54:12.156Z,8.55
2023-04-20T12:56:38.892Z,9.68
2023-04-20T12:59:05.649Z,8.35
2023-04-20T13:01:32.443Z,8.55
2023-04-20T13:03:59.205Z,10.30
2023-04-20T13:06:27.001Z,10.98
2023-04-20T13:08:53.905Z,10.45
2023-04-20T13:11:20.525Z,10.55
2023-04-20T13:13:47.181Z,11.00
2023-04-20T13:16:14.357Z,10.68
2023-04-20T13:18:41.146Z,11.23
2023-04-20T13:21:08.384Z,10.70
2023-04-20T13:23:35.120Z,11.43
2023-04-20T13:26:01.869Z,13.30
2023-04-20T13:28:28.588Z,13.35
2023-04-20T13:30:57.549Z,11.18
2023-04-20T13:33:24.352Z,14.85
2023-04-20T13:35:51.515Z,12.10
2023-04-20T13:38:18.419Z,13.38
2023-04-20T13:40:46.801Z,10.82
2023-04-20T13:43:13.705Z,11.52
2023-04-20T13:45:40.459Z,10.63
2023-04-20T13:48:07.421Z,10.05
2023-04-20T13:50:34.189Z,10.05
2023-04-20T13:53:03.214Z,12.35
2023-04-20T13:55:31.163Z,11.60
2023-04-20T13:57:57.887Z,11.48
2023-04-20T14:00:26.106Z,10.57
2023-04-20T14:02:52.989Z,9.30
2023-04-20T14:05:19.730Z,10.30
2023-04-20T14:07:46.452Z,9.68
2023-04-20T14:10:13.136Z,7.60
2023-04-20T14:12:40.132Z,11.23
2023-04-20T14:15:07.212Z,8.98
2023-04-20T14:17:33.927Z,10.07
2023-04-20T14:20:00.704Z,12.80
2023-04-20T14:22:34.091Z,13.20
2023-04-20T14:25:00.760Z,12.68
2023-04-20T14:27:27.412Z,11.65
2023-04-20T14:29:54.001Z,11.93
2023-04-20T14:32:20.681Z,11.43
2023-04-20T14:34:47.316Z,11.95
2023-04-20T14:37:13.953Z,11.70
2023-04-20T14:39:40.648Z,12.30
2023-04-20T14:42:07.781Z,13.80
2023-04-20T14:44:34.459Z,12.80
2023-04-20T14:47:02.137Z,14.90
2023-04-20T14:49:29.008Z,12.95
2023-04-20T14:51:55.727Z,12.18
2023-04-20T14:54:22.448Z,15.07
2023-04-20T14:56:49.098Z,12.55
2023-04-20T14:59:15.738Z,15.32
2023-04-20T15:01:54.905Z,14.90
2023-04-20T15:04:28.198Z,16.13
2023-04-20T15:06:55.088Z,18.55
2023-04-20T15:09:21.748Z,15.73
2023-04-20T15:11:48.393Z,12.63
2023-04-20T15:14:15.508Z,14.95
2023-04-20T15:16:42.849Z,13.90
2023-04-20T15:19:09.946Z,15.73
2023-04-20T15:21:37.129Z,20.02
2023-04-20T15:24:04.105Z,14.60
2023-04-20T15:26:31.231Z,15.13
2023-04-20T15:28:58.505Z,15.98
2023-04-20T15:31:26.042Z,14.60
2023-04-20T15:33:52.736Z,18.00
2023-04-20T15:36:20.519Z,16.55
2023-04-20T15:38:47.123Z,16.48
2023-04-20T15:41:13.779Z,17.73
2023-04-20T15:43:40.477Z,17.02
2023-04-20T15:46:07.906Z,16.80
2023-04-20T15:48:34.804Z,15.70
2023-04-20T15:51:01.509Z,18.17
2023-04-20T15:53:28.326Z,18.73
2023-04-20T15:55:55.074Z,15.98
2023-04-20T15:58:22.133Z,16.55
2023-04-20T16:00:48.814Z,16.60
2023-04-20T16:03:15.948Z,20.55
2023-04-20T16:05:42.748Z,22.27
2023-04-20T16:08:09.455Z,19.50
2023-04-20T16:10:36.104Z,22.23
2023-04-20T16:13:03.825Z,17.80
2023-04-20T16:15:30.747Z,18.92
2023-04-20T16:17:58.763Z,19.00
2023-04-20T16:20:25.455Z,18.02
2023-04-20T16:22:52.226Z,17.67
2023-04-20T16:25:23.224Z,18.48
2023-04-20T16:27:51.614Z,19.30
2023-04-20T16:30:18.845Z,18.40
2023-04-20T16:32:45.829Z,14.52
2023-04-20T16:35:12.593Z,19.77
2023-04-20T16:37:39.273Z,17.50
2023-04-20T16:40:06.840Z,17.25
2023-04-20T16:42:34.330Z,15.73
2023-04-20T16:45:01.279Z,19.77
2023-04-20T16:47:28.091Z,18.73
2023-04-20T16:49:54.725Z,15.88
2023-04-20T16:52:21.610Z,15.07
2023-04-20T16:54:48.216Z,15.77
2023-04-20T16:57:15.010Z,15.75
2023-04-20T16:59:42.555Z,18.70
2023-04-20T17:02:10.322Z,17.83
2023-04-20T17:04:37.076Z,17.10
2023-04-20T17:07:04.077Z,17.73
2023-04-20T17:09:30.667Z,18.80
2023-04-20T17:11:59.382Z,19.35
2023-04-20T17:14:26.076Z,18.52
2023-04-20T17:16:54.410Z,18.98
2023-04-20T17:19:21.117Z,20.17
2023-04-20T17:21:47.829Z,17.90
2023-04-20T17:24:14.583Z,17.20
2023-04-20T17:26:41.406Z,20.48
2023-04-20T17:29:08.059Z,20.33
2023-04-20T17:31:34.790Z,15.98
2023-04-20T17:34:01.493Z,15.57
2023-04-20T17:36:28.271Z,17.15
2023-04-20T17:38:55.020Z,18.05
2023-04-20T17:41:21.919Z,19.50
2023-04-20T17:43:50.838Z,23.67
2023-04-20T17:46:17.596Z,22.98
2023-04-20T17:48:44.432Z,20.90
2023-04-20T17:51:13.798Z,22.27
2023-04-20T17:53:40.614Z,22.88
2023-04-20T17:56:07.566Z,27.38
2023-04-20T17:58:34.399Z,21.45
2023-04-20T18:01:01.183Z,23.77
2023-04-20T18:03:28.572Z,22.95
2023-04-20T18:05:55.351Z,23.10
2023-04-20T18:08:23.334Z,23.77
2023-04-20T18:10:50.085Z,20.27
2023-04-20T18:13:16.810Z,20.95
2023-04-20T18:15:43.763Z,26.10
2023-04-20T18:18:10.491Z,25.45
2023-04-20T18:20:37.265Z,23.40
2023-04-20T18:23:04.011Z,20.95
2023-04-20T18:25:30.737Z,28.95
2023-04-20T18:27:57.337Z,22.35
2023-04-20T18:30:24.036Z,26.83
2023-04-20T18:32:50.731Z,30.00
2023-04-20T18:35:19.340Z,36.72
2023-04-20T18:37:46.023Z,23.17
2023-04-20T18:40:15.428Z,21.35
2023-04-20T18:42:42.879Z,21.73
2023-04-20T18:45:10.022Z,22.30
2023-04-20T18:47:36.774Z,21.10
2023-04-20T18:50:03.661Z,20.83
2023-04-20T18:52:33.985Z,21.67
2023-04-20T18:55:01.421Z,24.23
2023-04-20T18:57:28.887Z,21.77
2023-04-20T18:59:56.444Z,22.77
2023-04-20T19:02:23.459Z,21.55
2023-04-20T19:04:51.137Z,23.13
2023-04-20T19:07:18.627Z,26.30
2023-04-20T19:09:45.322Z,22.83
2023-04-20T19:12:12.234Z,22.85
2023-04-20T19:14:38.935Z,18.25
2023-04-20T19:17:07.345Z,23.33
2023-04-20T19:19:34.212Z,19.67
2023-04-20T19:22:01.160Z,19.17
2023-04-20T19:24:27.895Z,23.27
2023-04-20T19:26:54.648Z,22.92
2023-04-20T19:29:21.416Z,17.83
2023-04-20T19:31:48.107Z,17.23
2023-04-20T19:34:15.285Z,14.00
2023-04-20T19:36:42.296Z,15.35
2023-04-20T19:39:09.936Z,15.88
2023-04-20T19:41:36.781Z,13.15
2023-04-20T19:44:06.524Z,15.93
2023-04-20T19:46:33.890Z,13.32
2023-04-20T19:49:01.409Z,12.23
2023-04-20T19:51:28.144Z,11.98
2023-04-20T19:53:54.761Z,12.85
2023-04-20T19:56:21.488Z,12.48
2023-04-20T19:58:48.216Z,14.65
2023-04-20T20:01:15.078Z,11.30
2023-04-20T20:03:43.080Z,11.20
2023-04-20T20:06:10.043Z,11.63
2023-04-20T20:08:36.819Z,9.93
2023-04-20T20:11:04.052Z,10.43
2023-04-20T20:13:30.690Z,10.07
2023-04-20T20:15:58.821Z,14.70
2023-04-20T20:18:25.928Z,15.68
2023-04-20T20:20:52.638Z,15.60
2023-04-20T20:23:19.303Z,15.70
2023-04-20T20:25:46.193Z,16.70
2023-04-20T20:28:12.905Z,17.45
2023-04-20T20:30:41.561Z,19.27
2023-04-20T20:33:08.186Z,19.48
2023-04-20T20:35:35.043Z,20.15
2023-04-20T20:38:01.703Z,19.95
2023-04-20T20:40:28.356Z,22.75
2023-04-20T20:42:55.047Z,18.80
2023-04-20T20:45:22.047Z,20.58
2023-04-20T20:47:49.182Z,19.85
2023-04-20T20:50:16.540Z,18.98
2023-04-20T20:52:43.181Z,20.85
2023-04-20T20:55:10.497Z,19.25
2023-04-20T20:57:37.242Z,21.00
2023-04-20T21:00:09.896Z,21.58
2023-04-20T21:02:40.059Z,23.20
2023-04-20T21:05:07.322Z,20.65
2023-04-20T21:07:33.975Z,23.65
2023-04-20T21:10:00.802Z,21.52
2023-04-20T21:12:27.564Z,21.17
2023-04-20T21:14:54.275Z,22.63
2023-04-20T21:17:20.988Z,26.17
2023-04-20T21:19:47.618Z,51.05
2023-04-20T21:22:14.352Z,49.25
2023-04-20T21:24:41.195Z,61.97
2023-04-20T21:27:07.951Z,34.17
2023-04-20T21:29:34.609Z,23.90
2023-04-20T21:32:01.391Z,32.00
2023-04-20T21:34:28.313Z,24.42
2023-04-20T21:36:55.066Z,24.60
2023-04-20T21:39:21.800Z,38.75
2023-04-20T21:41:48.597Z,61.17
2023-04-20T21:44:15.369Z,30.42
2023-04-20T21:46:42.188Z,24.73
2023-04-20T21:49:08.876Z,25.30
2023-04-20T21:51:35.818Z,23.92
2023-04-20T21:54:02.487Z,37.63
2023-04-20T21:56:29.124Z,112.57
2023-04-20T21:58:55.744Z,73.45
2023-04-20T22:01:22.595Z,46.45
2023-04-20T22:03:49.514Z,45.00
2023-04-20T22:06:16.404Z,59.00
2023-04-20T22:08:43.296Z,43.90
2023-04-20T22:11:10.210Z,32.55
2023-04-20T22:13:37.305Z,65.47
2023-04-20T22:16:04.415Z,108.68
2023-04-20T22:18:31.222Z,50.05
2023-04-20T22:20:58.127Z,50.17
2023-04-20T22:23:24.752Z,22.42
2023-04-20T22:25:51.380Z,26.40
2023-04-20T22:28:18.064Z,42.90
2023-04-20T22:30:44.767Z,26.15
2023-04-20T22:33:11.486Z,43.38
2023-04-20T22:35:38.296Z,35.92
2023-04-20T22:38:05.072Z,40.47
2023-04-20T22:40:31.841Z,30.83
2023-04-20T22:42:58.514Z,24.27
2023-04-20T22:45:25.485Z,38.28
2023-04-20T22:47:52.322Z,41.38
2023-04-20T22:50:19.060Z,30.98
2023-04-20T22:52:46.210Z,40.75
2023-04-20T22:55:12.922Z,42.30
2023-04-20T22:57:39.659Z,33.50
2023-04-20T23:00:10.669Z,39.33
2023-04-20T23:02:38.120Z,42.60
2023-04-20T23:05:05.810Z,55.50
2023-04-20T23:07:33.458Z,72.40
2023-04-20T23:10:01.597Z,63.53
2023-04-20T23:12:29.622Z,75.20
2023-04-20T23:14:56.831Z,55.10
2023-04-20T23:17:23.615Z,59.65
2023-04-20T23:19:51.043Z,46.83
2023-04-20T23:22:17.884Z,52.47
2023-04-20T23:24:44.853Z,48.00
2023-04-20T23:27:11.492Z,68.88
2023-04-20T23:29:38.110Z,64.85
2023-04-20T23:32:05.144Z,49.13
2023-04-20T23:34:31.849Z,50.60
2023-04-20T23:36:58.602Z,54.30
2023-04-20T23:39:25.355Z,40.88
2023-04-20T23:41:52.000Z,50.55
2023-04-20T23:44:18.643Z,37.28
2023-04-20T23:46:46.388Z,48.63
2023-04-20T23:49:13.293Z,34.78
2023-04-20T23:51:40.273Z,47.40
2023-04-20T23:54:06.910Z,42.88
2023-04-20T23:56:33.561Z,49.22
2023-04-20T23:59:00.243Z,45.20
